createdAt,value
2018-07-27T00:01:10.853Z,16.60
2018-07-27T00:03:39.005Z,16.50
2018-07-27T00:06:07.097Z,16.50
2018-07-27T00:08:35.166Z,16.40
2018-07-27T00:11:03.347Z,16.40
2018-07-27T00:13:31.495Z,16.40
2018-07-27T00:15:59.591Z,16.40
2018-07-27T00:18:27.850Z,16.40
2018-07-27T00:20:56.042Z,16.50
2018-07-27T00:23:24.308Z,16.50
2018-07-27T00:25:52.472Z,16.50
2018-07-27T00:28:20.685Z,16.60
2018-07-27T00:30:48.824Z,16.60
2018-07-27T00:33:17.029Z,16.60
2018-07-27T00:35:45.257Z,16.50
2018-07-27T00:40:41.250Z,16.40
2018-07-27T00:43:09.522Z,16.40
2018-07-27T00:45:37.582Z,16.50
2018-07-27T00:48:05.760Z,16.40
2018-07-27T00:50:33.922Z,16.20
2018-07-27T00:53:02.217Z,16.10
2018-07-27T00:55:30.304Z,16.10
2018-07-27T00:57:58.553Z,16.10
2018-07-27T01:00:26.671Z,16.10
2018-07-27T01:02:54.796Z,16.20
2018-07-27T01:05:22.898Z,16.30
2018-07-27T01:07:51.260Z,16.40
2018-07-27T01:10:19.459Z,16.50
2018-07-27T01:12:47.619Z,16.70
2018-07-27T01:15:15.814Z,16.80
2018-07-27T01:17:43.963Z,16.90
2018-07-27T01:20:12.082Z,17.00
2018-07-27T01:22:40.136Z,17.00
2018-07-27T01:25:08.280Z,17.00
2018-07-27T01:27:36.577Z,17.00
2018-07-27T01:30:05.864Z,17.00
2018-07-27T01:32:33.957Z,17.00
2018-07-27T01:35:02.069Z,16.90
2018-07-27T01:37:30.101Z,16.80
2018-07-27T01:39:58.180Z,16.80
2018-07-27T01:42:26.244Z,16.70
2018-07-27T01:44:54.399Z,16.70
2018-07-27T01:47:22.593Z,16.60
2018-07-27T01:49:50.679Z,16.50
2018-07-27T01:52:18.743Z,16.40
2018-07-27T01:54:47.130Z,16.40
2018-07-27T01:57:15.480Z,16.30
2018-07-27T01:59:43.887Z,16.20
2018-07-27T02:02:11.956Z,16.20
2018-07-27T02:04:40.143Z,16.30
2018-07-27T02:07:08.279Z,16.40
2018-07-27T02:09:36.385Z,16.50
2018-07-27T02:12:04.532Z,16.50
2018-07-27T02:14:32.848Z,16.60
2018-07-27T02:17:01.027Z,16.60
2018-07-27T02:19:29.063Z,16.60
2018-07-27T02:21:57.252Z,16.60
2018-07-27T02:24:25.545Z,16.50
2018-07-27T02:26:59.330Z,16.50
2018-07-27T02:29:41.903Z,16.50
2018-07-27T02:32:13.393Z,16.60
2018-07-27T02:34:41.676Z,16.70
2018-07-27T02:37:09.757Z,16.90
2018-07-27T02:39:38.032Z,16.90
2018-07-27T02:42:07.752Z,17.10
2018-07-27T02:44:36.234Z,17.10
2018-07-27T02:47:04.653Z,17.10
2018-07-27T02:49:33.257Z,17.10
2018-07-27T02:52:01.933Z,17.10
2018-07-27T02:54:29.961Z,17.10
2018-07-27T02:56:58.495Z,17.00
2018-07-27T03:01:54.861Z,16.80
2018-07-27T03:06:51.152Z,16.60
2018-07-27T03:09:21.211Z,16.70
2018-07-27T03:11:52.040Z,16.80
2018-07-27T03:14:24.715Z,16.90
2018-07-27T03:16:52.861Z,17.00
2018-07-27T03:19:20.900Z,16.90
2018-07-27T03:21:49.014Z,16.90
2018-07-27T03:24:17.035Z,16.70
2018-07-27T03:29:12.988Z,16.50
2018-07-27T03:31:41.293Z,16.40
2018-07-27T03:34:09.868Z,16.40
2018-07-27T03:36:38.125Z,16.30
2018-07-27T03:39:08.517Z,16.30
2018-07-27T03:41:36.655Z,16.30
2018-07-27T03:44:04.933Z,16.40
2018-07-27T03:46:33.119Z,16.50
2018-07-27T03:49:01.322Z,16.60
2018-07-27T03:51:29.324Z,16.70
2018-07-27T03:56:25.384Z,16.80
2018-07-27T03:58:53.486Z,16.80
2018-07-27T04:01:21.539Z,16.80
2018-07-27T04:03:49.631Z,16.90
2018-07-27T04:06:17.693Z,16.80
2018-07-27T04:08:45.756Z,17.00
2018-07-27T04:11:13.860Z,17.00
2018-07-27T04:13:41.912Z,17.00
2018-07-27T04:16:10.097Z,17.00
2018-07-27T04:18:38.336Z,17.00
2018-07-27T04:23:34.187Z,17.00
2018-07-27T04:26:02.397Z,17.00
2018-07-27T04:28:30.607Z,17.00
2018-07-27T04:30:58.732Z,17.10
2018-07-27T04:33:26.776Z,17.00
2018-07-27T04:38:22.776Z,17.00
2018-07-27T04:40:50.883Z,17.10
2018-07-27T04:45:47.057Z,17.40
2018-07-27T04:48:15.140Z,17.60
2018-07-27T04:50:43.317Z,17.70
2018-07-27T04:53:11.618Z,17.80
2018-07-27T04:55:39.668Z,17.90
2018-07-27T04:58:07.925Z,18.00
2018-07-27T05:00:36.033Z,18.00
2018-07-27T05:03:04.087Z,18.10
2018-07-27T05:05:32.160Z,18.20
2018-07-27T05:08:00.212Z,18.30
2018-07-27T05:10:33.842Z,18.40
2018-07-27T05:13:01.890Z,18.50
2018-07-27T05:15:29.996Z,18.60
2018-07-27T05:17:58.038Z,18.70
2018-07-27T05:20:26.127Z,18.80
2018-07-27T05:22:54.200Z,18.80
2018-07-27T05:25:22.385Z,18.90
2018-07-27T05:27:50.460Z,19.00
2018-07-27T05:30:18.501Z,19.20
2018-07-27T05:32:46.620Z,19.30
2018-07-27T05:35:14.750Z,19.40
2018-07-27T05:37:43.068Z,19.30
2018-07-27T05:40:11.158Z,19.40
2018-07-27T05:42:39.271Z,19.50
2018-07-27T05:47:35.445Z,19.80
2018-07-27T05:50:03.743Z,19.90
2018-07-27T05:52:31.815Z,20.00
2018-07-27T05:54:59.882Z,20.10
2018-07-27T05:57:28.028Z,20.30
2018-07-27T05:59:56.114Z,20.50
2018-07-27T06:02:24.294Z,20.60
2018-07-27T06:04:52.442Z,20.70
2018-07-27T06:07:20.517Z,20.50
2018-07-27T06:09:48.660Z,20.50
2018-07-27T06:12:16.663Z,20.60
2018-07-27T06:17:12.706Z,20.70
2018-07-27T06:22:08.753Z,20.60
2018-07-27T06:24:52.448Z,21.10
2018-07-27T06:27:20.676Z,21.20
2018-07-27T06:29:49.135Z,21.30
2018-07-27T06:37:14.408Z,22.10
2018-07-27T06:39:43.836Z,22.30
2018-07-27T06:42:12.019Z,22.50
2018-07-27T06:44:40.189Z,22.90
2018-07-27T06:47:08.415Z,23.30
2018-07-27T06:52:04.398Z,24.00
2018-07-27T06:54:32.405Z,24.40
2018-07-27T06:57:00.549Z,24.50
2018-07-27T06:59:28.719Z,24.50
2018-07-27T07:01:56.896Z,24.50
2018-07-27T07:04:24.948Z,24.50
2018-07-27T07:06:53.260Z,24.50
2018-07-27T07:09:21.300Z,24.60
2018-07-27T07:11:49.479Z,24.70
2018-07-27T07:14:17.684Z,24.80
2018-07-27T07:16:45.748Z,24.90
2018-07-27T07:19:13.902Z,25.00
2018-07-27T07:21:42.109Z,25.00
2018-07-27T07:24:10.124Z,24.90
2018-07-27T07:29:06.296Z,24.90
2018-07-27T07:31:34.265Z,24.40
2018-07-27T07:34:02.368Z,24.30
2018-07-27T07:36:30.625Z,24.20
2018-07-27T07:38:58.718Z,24.30
2018-07-27T07:41:26.764Z,24.00
2018-07-27T07:43:55.034Z,24.00
2018-07-27T07:46:23.049Z,24.10
2018-07-27T07:48:51.196Z,24.30
2018-07-27T07:51:19.300Z,24.50
2018-07-27T07:53:47.424Z,24.70
2018-07-27T07:58:43.320Z,24.90
2018-07-27T08:01:11.370Z,24.80
2018-07-27T08:03:39.563Z,24.90
2018-07-27T08:06:07.592Z,25.00
2018-07-27T08:08:35.770Z,25.10
2018-07-27T08:11:04.112Z,25.00
2018-07-27T08:13:32.145Z,25.30
2018-07-27T08:16:00.197Z,25.10
2018-07-27T08:18:28.323Z,25.00
2018-07-27T08:20:56.440Z,24.90
2018-07-27T08:23:24.516Z,24.70
2018-07-27T08:26:59.384Z,24.80
2018-07-27T08:29:33.043Z,25.10
2018-07-27T08:32:01.603Z,25.50
2018-07-27T08:34:29.765Z,25.50
2018-07-27T08:36:57.940Z,25.80
2018-07-27T08:39:29.065Z,26.00
2018-07-27T08:41:57.320Z,26.10
2018-07-27T08:44:34.592Z,26.00
2018-07-27T08:49:31.080Z,25.70
2018-07-27T08:51:59.381Z,25.80
2018-07-27T08:54:27.516Z,26.00
2018-07-27T08:56:55.617Z,26.20
2018-07-27T08:59:23.689Z,26.00
2018-07-27T09:01:51.849Z,26.00
2018-07-27T09:04:19.945Z,26.10
2018-07-27T09:06:48.112Z,26.00
2018-07-27T09:09:17.221Z,26.20
2018-07-27T09:11:45.386Z,26.40
2018-07-27T09:14:14.356Z,26.60
2018-07-27T09:16:42.551Z,26.60
2018-07-27T09:19:10.812Z,26.70
2018-07-27T09:21:39.016Z,26.50
2018-07-27T09:24:07.074Z,26.30
2018-07-27T09:26:35.149Z,26.50
2018-07-27T09:29:03.299Z,26.80
2018-07-27T09:31:31.498Z,26.80
2018-07-27T09:33:59.540Z,26.80
2018-07-27T09:38:55.632Z,27.00
2018-07-27T09:41:23.796Z,27.10
2018-07-27T09:43:52.568Z,27.00
2018-07-27T09:46:20.667Z,27.20
2018-07-27T09:48:51.364Z,27.20
2018-07-27T09:53:47.971Z,27.10
2018-07-27T09:56:16.049Z,27.40
2018-07-27T09:58:44.192Z,27.40
2018-07-27T10:01:17.872Z,27.40
2018-07-27T10:06:13.955Z,27.40
2018-07-27T10:08:42.137Z,27.40
2018-07-27T10:11:10.272Z,27.40
2018-07-27T10:13:38.323Z,27.40
2018-07-27T10:21:02.364Z,28.10
2018-07-27T10:25:58.420Z,28.40
2018-07-27T10:28:26.520Z,28.30
2018-07-27T10:30:54.655Z,28.40
2018-07-27T10:33:22.968Z,28.90
2018-07-27T10:35:51.028Z,29.10
2018-07-27T10:38:19.075Z,29.00
2018-07-27T10:43:15.000Z,29.20
2018-07-27T10:45:43.126Z,29.40
2018-07-27T10:48:11.271Z,29.40
2018-07-27T10:50:39.353Z,29.50
2018-07-27T10:53:07.408Z,29.40
2018-07-27T10:58:03.357Z,29.30
2018-07-27T11:00:31.449Z,29.50
2018-07-27T11:02:59.618Z,29.30
2018-07-27T11:05:27.715Z,29.10
2018-07-27T11:07:55.749Z,28.80
2018-07-27T11:10:23.839Z,28.90
2018-07-27T11:12:51.911Z,28.90
2018-07-27T11:15:20.152Z,28.80
2018-07-27T11:17:48.377Z,29.00
2018-07-27T11:20:16.458Z,29.10
2018-07-27T11:22:44.599Z,29.30
2018-07-27T11:27:40.541Z,29.30
2018-07-27T11:30:08.718Z,29.40
2018-07-27T11:32:37.032Z,29.70
2018-07-27T11:35:05.169Z,29.20
2018-07-27T11:40:01.528Z,29.10
2018-07-27T11:42:29.673Z,29.00
2018-07-27T11:44:57.671Z,28.90
2018-07-27T11:47:25.750Z,29.30
2018-07-27T11:49:53.823Z,29.20
2018-07-27T11:52:22.119Z,29.60
2018-07-27T11:54:50.472Z,29.60
2018-07-27T11:57:18.589Z,29.90
2018-07-27T11:59:46.708Z,29.90
2018-07-27T12:04:42.760Z,30.00
2018-07-27T12:09:38.628Z,29.80
2018-07-27T12:12:06.983Z,30.10
2018-07-27T12:14:35.159Z,30.00
2018-07-27T12:17:03.132Z,30.20
2018-07-27T12:19:31.220Z,30.30
2018-07-27T12:21:59.381Z,30.50
2018-07-27T12:24:27.587Z,30.30
2018-07-27T12:26:55.638Z,30.30
2018-07-27T12:29:23.740Z,30.30
2018-07-27T12:31:51.909Z,30.10
2018-07-27T12:34:20.081Z,29.70
2018-07-27T12:36:48.184Z,29.60
2018-07-27T12:39:16.230Z,29.70
2018-07-27T12:41:44.298Z,29.90
2018-07-27T12:44:12.370Z,30.20
2018-07-27T12:46:40.772Z,30.00
2018-07-27T12:49:09.317Z,30.10
2018-07-27T12:51:37.793Z,30.20
2018-07-27T12:54:05.981Z,29.90
2018-07-27T12:56:34.177Z,29.70
2018-07-27T12:59:02.256Z,29.80
2018-07-27T13:01:30.422Z,29.30
2018-07-27T13:03:58.507Z,29.00
2018-07-27T13:06:26.645Z,28.90
2018-07-27T13:08:54.800Z,28.80
2018-07-27T13:13:50.976Z,29.10
2018-07-27T13:16:19.269Z,29.40
2018-07-27T13:18:47.935Z,29.70
2018-07-27T13:21:16.137Z,29.90
2018-07-27T13:23:59.073Z,29.50
2018-07-27T13:26:27.242Z,29.60
2018-07-27T13:28:55.416Z,29.80
2018-07-27T13:31:53.995Z,29.80
2018-07-27T13:34:57.442Z,30.00
2018-07-27T13:37:26.816Z,30.20
2018-07-27T13:39:56.002Z,30.20
2018-07-27T13:42:25.376Z,30.00
2018-07-27T13:44:53.577Z,30.10
2018-07-27T13:47:21.841Z,30.00
2018-07-27T13:49:49.967Z,29.90
2018-07-27T13:52:18.288Z,30.00
2018-07-27T13:54:46.383Z,30.10
2018-07-27T13:57:14.561Z,30.10
2018-07-27T13:59:42.835Z,30.10
2018-07-27T14:02:11.530Z,29.80
2018-07-27T14:04:39.677Z,29.50
2018-07-27T14:07:08.720Z,29.60
2018-07-27T14:09:36.748Z,29.80
2018-07-27T14:12:05.046Z,29.90
2018-07-27T14:14:33.297Z,29.90
2018-07-27T14:17:01.610Z,30.10
2018-07-27T14:19:29.864Z,30.30
2018-07-27T14:21:58.062Z,30.40
2018-07-27T14:24:26.214Z,30.40
2018-07-27T14:26:54.408Z,30.30
2018-07-27T14:29:22.524Z,30.40
2018-07-27T14:31:50.694Z,30.40
2018-07-27T14:34:18.754Z,30.50
2018-07-27T14:36:46.875Z,30.50
2018-07-27T14:39:15.874Z,30.70
2018-07-27T14:46:40.488Z,30.70
2018-07-27T14:51:37.393Z,30.60
2018-07-27T14:54:06.399Z,30.80
2018-07-27T14:56:34.484Z,30.80
2018-07-27T14:59:02.608Z,30.80
2018-07-27T15:03:58.553Z,30.50
2018-07-27T15:06:26.647Z,30.50
2018-07-27T15:08:54.695Z,30.60
2018-07-27T15:13:50.636Z,30.70
2018-07-27T15:18:46.596Z,30.90
2018-07-27T15:21:14.908Z,30.60
2018-07-27T15:23:43.054Z,30.60
2018-07-27T15:26:11.235Z,30.40
2018-07-27T15:28:39.282Z,30.30
2018-07-27T15:33:35.226Z,30.60
2018-07-27T15:36:08.473Z,30.50
2018-07-27T15:38:36.500Z,30.40
2018-07-27T15:41:04.796Z,30.50
2018-07-27T15:43:32.943Z,30.40
2018-07-27T15:46:01.136Z,30.40
2018-07-27T15:48:29.308Z,30.50
2018-07-27T15:50:57.492Z,30.40
2018-07-27T15:53:25.551Z,30.30
2018-07-27T15:55:53.693Z,30.20
2018-07-27T15:58:22.039Z,30.30
2018-07-27T16:00:50.030Z,30.50
2018-07-27T16:03:18.173Z,30.60
2018-07-27T16:05:46.310Z,30.70
2018-07-27T16:10:42.302Z,30.60
2018-07-27T16:13:10.477Z,30.60
2018-07-27T16:15:38.617Z,30.40
2018-07-27T16:18:06.925Z,30.30
2018-07-27T16:20:34.965Z,30.20
2018-07-27T16:25:31.019Z,30.40
2018-07-27T16:27:59.096Z,30.30
2018-07-27T16:30:27.180Z,30.20
2018-07-27T16:32:55.456Z,30.20
2018-07-27T16:35:23.557Z,30.10
2018-07-27T16:37:51.714Z,30.10
2018-07-27T16:40:19.862Z,30.00
2018-07-27T16:42:47.958Z,30.00
2018-07-27T16:45:16.137Z,30.00
2018-07-27T16:47:44.188Z,30.50
2018-07-27T16:50:12.377Z,32.40
2018-07-27T16:52:40.439Z,33.50
2018-07-27T16:55:08.525Z,33.90
2018-07-27T16:57:36.593Z,34.50
2018-07-27T17:00:04.988Z,34.50
2018-07-27T17:02:33.038Z,34.60
2018-07-27T17:05:01.143Z,34.70
2018-07-27T17:07:29.178Z,34.70
2018-07-27T17:09:57.479Z,34.30
2018-07-27T17:12:25.537Z,34.30
2018-07-27T17:14:53.612Z,34.60
2018-07-27T17:17:21.715Z,35.20
2018-07-27T17:19:49.764Z,35.40
2018-07-27T17:22:17.918Z,35.70
2018-07-27T17:27:13.901Z,34.50
2018-07-27T17:29:42.053Z,34.40
2018-07-27T17:32:10.236Z,34.30
2018-07-27T17:34:38.288Z,33.60
2018-07-27T17:39:34.224Z,33.30
2018-07-27T17:44:30.280Z,32.80
2018-07-27T17:46:58.477Z,32.80
2018-07-27T17:49:26.545Z,32.50
2018-07-27T17:51:54.539Z,32.40
2018-07-27T17:54:22.599Z,32.10
2018-07-27T17:56:50.672Z,31.90
2018-07-27T17:59:18.736Z,31.80
2018-07-27T18:01:46.848Z,31.50
2018-07-27T18:04:14.883Z,31.30
2018-07-27T18:06:42.935Z,31.20
2018-07-27T18:09:12.100Z,31.10
2018-07-27T18:11:40.418Z,30.80
2018-07-27T18:14:08.815Z,30.40
2018-07-27T18:16:36.972Z,30.00
2018-07-27T18:19:05.381Z,29.50
2018-07-27T18:21:33.426Z,29.10
2018-07-27T18:24:01.524Z,28.70
2018-07-27T18:26:29.756Z,27.90
2018-07-27T18:31:25.803Z,26.90
2018-07-27T18:36:21.976Z,26.20
2018-07-27T18:38:49.363Z,26.00
2018-07-27T18:41:16.679Z,25.80
2018-07-27T18:43:44.068Z,25.60
2018-07-27T18:46:11.483Z,25.40
2018-07-27T18:48:38.947Z,25.30
2018-07-27T18:53:33.352Z,24.90
2018-07-27T18:58:27.759Z,24.70
2018-07-27T19:03:22.576Z,24.40
2018-07-27T19:05:49.951Z,24.10
2018-07-27T19:08:17.287Z,23.90
2018-07-27T19:13:11.794Z,23.60
2018-07-27T19:18:06.198Z,23.40
2018-07-27T19:23:00.628Z,23.10
2018-07-27T19:25:27.967Z,23.00
2018-07-27T19:27:55.555Z,22.90
2018-07-27T19:30:23.068Z,22.80
2018-07-27T19:32:50.572Z,22.70
2018-07-27T19:35:17.904Z,22.70
2018-07-27T19:40:12.510Z,22.60
2018-07-27T19:45:07.148Z,22.50
2018-07-27T19:47:34.499Z,22.40
2018-07-27T19:50:01.873Z,22.20
2018-07-27T19:52:29.294Z,22.20
2018-07-27T19:57:23.801Z,22.00
2018-07-27T20:02:18.230Z,21.60
2018-07-27T20:04:45.587Z,21.60
2018-07-27T20:07:12.934Z,21.60
2018-07-27T20:09:40.316Z,21.80
2018-07-27T20:12:07.644Z,21.80
2018-07-27T20:14:35.026Z,21.70
2018-07-27T20:17:02.357Z,21.60
2018-07-27T20:19:29.747Z,21.50
2018-07-27T20:21:57.156Z,21.40
2018-07-27T20:26:51.853Z,21.40
2018-07-27T20:29:19.396Z,21.40
2018-07-27T20:31:46.698Z,21.40
2018-07-27T20:34:14.181Z,21.40
2018-07-27T20:36:41.514Z,21.30
2018-07-27T20:39:11.035Z,21.20
2018-07-27T20:41:38.406Z,21.20
2018-07-27T20:44:05.728Z,21.10
2018-07-27T20:49:00.325Z,21.00
2018-07-27T20:53:54.748Z,21.00
2018-07-27T20:56:22.123Z,21.00
2018-07-27T20:58:49.478Z,20.80
2018-07-27T21:01:16.842Z,20.70
2018-07-27T21:03:44.187Z,20.50
2018-07-27T21:06:11.612Z,20.40
2018-07-27T21:13:33.073Z,20.20
2018-07-27T21:16:00.445Z,20.10
2018-07-27T21:18:27.923Z,19.90
2018-07-27T21:20:55.276Z,19.70
2018-07-27T21:23:22.731Z,19.50
2018-07-27T21:25:50.080Z,19.40
2018-07-27T21:28:17.447Z,19.30
2018-07-27T21:30:44.782Z,19.30
2018-07-27T21:33:12.159Z,19.30
2018-07-27T21:35:40.731Z,19.30
2018-07-27T21:38:08.417Z,19.30
2018-07-27T21:40:35.960Z,19.30
2018-07-27T21:43:03.322Z,19.20
2018-07-27T21:45:30.790Z,19.20
2018-07-27T21:47:58.115Z,19.10
2018-07-27T21:50:25.599Z,19.10
2018-07-27T21:52:53.119Z,19.10
2018-07-27T21:55:20.609Z,19.10
2018-07-27T21:57:47.963Z,19.10
2018-07-27T22:00:15.431Z,19.00
2018-07-27T22:02:42.790Z,19.00
2018-07-27T22:05:10.206Z,18.90
2018-07-27T22:07:37.887Z,18.90
2018-07-27T22:12:32.309Z,18.80
2018-07-27T22:14:59.686Z,18.80
2018-07-27T22:17:27.048Z,18.80
2018-07-27T22:19:54.371Z,18.70
2018-07-27T22:22:21.760Z,18.70
2018-07-27T22:24:49.077Z,18.70
2018-07-27T22:27:16.560Z,18.70
2018-07-27T22:29:43.890Z,18.70
2018-07-27T22:32:11.384Z,18.60
2018-07-27T22:34:38.707Z,18.50
2018-07-27T22:39:33.215Z,18.30
2018-07-27T22:44:27.649Z,18.20
2018-07-27T22:46:54.976Z,18.10
2018-07-27T22:49:22.366Z,18.10
2018-07-27T22:51:49.690Z,18.00
2018-07-27T22:56:44.217Z,17.80
2018-07-27T22:59:11.591Z,17.70
2018-07-27T23:01:38.928Z,17.70
2018-07-27T23:04:06.717Z,17.80
2018-07-27T23:06:34.080Z,17.70
2018-07-27T23:09:01.491Z,17.70
2018-07-27T23:13:56.097Z,17.60
2018-07-27T23:18:50.529Z,17.50
2018-07-27T23:21:17.904Z,17.50
2018-07-27T23:23:45.238Z,17.40
2018-07-27T23:26:12.604Z,17.40
2018-07-27T23:28:39.972Z,17.40
2018-07-27T23:31:07.301Z,17.40
2018-07-27T23:33:34.688Z,17.30
2018-07-27T23:36:02.103Z,17.30
2018-07-27T23:40:56.615Z,17.40
2018-07-27T23:43:24.008Z,17.40
2018-07-27T23:45:51.327Z,17.40
2018-07-27T23:53:13.086Z,17.30
2018-07-27T23:58:07.705Z,17.30
